Aviation Digital Data Service (ADDS)

Output produced by METARs form (1231 UTC 24 May 2022)
found at http://www.aviationweather.gov/metar/data/
 
METAR text: KSNA 241153Z AUTO 00000KT 10SM OVC013 17/12 A2983 RMK AO2 SLP102 T01670117 10167 20161 56007
Conditions at: KSNA (COSTA MESA , CA, US) observed 1153 UTC 24 May 2022
Temperature: 16.7°C (62°F)
Dewpoint: 11.7°C (53°F) [RH = 72%]
Pressure (altimeter): 29.83 inches Hg (1010.2 mb)
[Sea-level pressure: 1010.2 mb]
Winds: calm
Visibility: 10 or more miles (16+ km)
Ceiling: 1300 feet AGL
Clouds: overcast cloud deck at 1300 feet AGL
Weather: automated observation with no human augmentation;
there may or may not be significant weather present at this time

METAR text: KSNA 241053Z AUTO 00000KT 10SM OVC012 17/12 A2983 RMK AO2 SLP102 T01670117
Conditions at: KSNA (COSTA MESA , CA, US) observed 1053 UTC 24 May 2022
Temperature: 16.7°C (62°F)
Dewpoint: 11.7°C (53°F) [RH = 72%]
Pressure (altimeter): 29.83 inches Hg (1010.2 mb)
[Sea-level pressure: 1010.2 mb]
Winds: calm
Visibility: 10 or more miles (16+ km)
Ceiling: 1200 feet AGL
Clouds: overcast cloud deck at 1200 feet AGL
Weather: automated observation with no human augmentation;
there may or may not be significant weather present at this time

Forecast for: KSNA (COSTA MESA , CA, US)
Text: KSNA 241120Z 2412/2512 VRB04KT P6SM OVC012
Forecast period: 1200 to 1900 UTC 24 May 2022
Forecast type: FROM: standard forecast or significant change
Winds: variable direction winds at 5 MPH (4 knots; 2.1 m/s)
Visibility: 6 or more miles (10+ km)
Ceiling: 1200 feet AGL
Clouds: overcast cloud deck at 1200 feet AGL
Weather: no significant weather forecast for this period
Text: FM241900 21009KT P6SM FEW015
Forecast period: 1900 UTC 24 May 2022 to 0300 UTC 25 May 2022
Forecast type: FROM: standard forecast or significant change
Winds: from the SSW (210 degrees) at 10 MPH (9 knots; 4.6 m/s)
Visibility: 6 or more miles (10+ km)
Ceiling: at least 12,000 feet AGL
Clouds: few clouds at 1500 feet AGL
Weather: no significant weather forecast for this period
Text: FM250300 20005KT P6SM BKN010
Forecast period: 0300 to 0600 UTC 25 May 2022
Forecast type: FROM: standard forecast or significant change
Winds: from the SSW (200 degrees) at 6 MPH (5 knots; 2.6 m/s)
Visibility: 6 or more miles (10+ km)
Ceiling: 1000 feet AGL
Clouds: broken clouds at 1000 feet AGL
Weather: no significant weather forecast for this period
Text: FM250600 VRB04KT P6SM OVC008
Forecast period: 0600 to 1200 UTC 25 May 2022
Forecast type: FROM: standard forecast or significant change
Winds: variable direction winds at 5 MPH (4 knots; 2.1 m/s)
Visibility: 6 or more miles (10+ km)
Ceiling: 800 feet AGL
Clouds: overcast cloud deck at 800 feet AGL
Weather: no significant weather forecast for this period